Time;durP1;ratioP1;P1;durP2;ratioP2;P2;SDS_P1;SDS_P2;PMS_P1;PMS_P2;Temp;Humidity;BMP_temperature;BMP_pressure;BME280_temperature;BME280_humidity;BME280_pressure;Samples;Min_cycle;Max_cycle;Signal;HPM_P1;HPM_P2
2023/01/15 00:01:52;;;;;;;;;6.60;6.60;;;;;9.79;43.15;98316.56;6219903;27;98948;-63
2023/01/15 00:04:57;;;;;;;;;6.25;5.75;;;;;9.91;42.85;98312.84;6236958;28;98349;-61
2023/01/15 00:08:01;;;;;;;;;6.00;5.00;;;;;9.96;42.65;98309.47;6238930;28;96502;-61
2023/01/15 00:11:04;;;;;;;;;5.00;5.00;;;;;9.90;42.42;98305.00;6233552;28;96719;-60
2023/01/15 00:14:08;;;;;;;;;6.00;5.40;;;;;9.92;42.36;98306.38;6245097;28;97016;-60
2023/01/15 00:17:11;;;;;;;;;6.40;6.00;;;;;10.16;42.13;98290.31;6225953;28;96849;-60
2023/01/15 00:20:17;;;;;;;;;4.00;4.00;;;;;10.29;42.02;98301.69;6243231;27;98313;-60
2023/01/15 00:29:58;;;;;;;;;4.00;4.00;;;;;10.38;41.60;98297.56;6244941;28;96329;-62
2023/01/15 00:33:02;;;;;;;;;6.00;6.00;;;;;10.50;41.73;98286.78;6247650;27;96262;-61
2023/01/15 00:36:07;;;;;;;;;6.00;5.60;;;;;10.54;41.35;98292.53;6226005;28;96626;-63
2023/01/15 00:39:10;;;;;;;;;5.00;5.00;;;;;10.53;41.27;98280.09;6225594;28;97214;-60
2023/01/15 00:42:15;;;;;;;;;4.20;3.60;;;;;10.58;41.07;98275.66;6224510;28;96701;-60
2023/01/15 00:45:18;;;;;;;;;4.00;4.00;;;;;10.58;40.70;98269.44;6242321;28;96144;-62
2023/01/15 00:48:22;;;;;;;;;5.00;4.00;;;;;10.47;40.81;98270.25;6241568;28;96514;-61
2023/01/15 00:51:26;;;;;;;;;5.40;5.00;;;;;10.46;40.83;98255.97;6242303;28;96627;-62
2023/01/15 00:54:32;;;;;;;;;5.00;5.00;;;;;10.65;40.59;98257.44;6220336;28;96997;-62
2023/01/15 00:57:35;;;;;;;;;4.00;4.00;;;;;10.73;40.26;98249.03;6222479;28;98501;-62
2023/01/15 01:00:39;;;;;;;;;4.00;4.00;;;;;10.69;39.99;98244.34;6225873;28;96550;-62
2023/01/15 01:03:47;;;;;;;;;4.00;4.00;;;;;10.74;39.85;98234.47;6226224;28;96797;-61
2023/01/15 01:06:52;;;;;;;;;5.40;5.40;;;;;10.72;39.97;98233.91;6225768;28;96410;-63
2023/01/15 01:09:56;;;;;;;;;5.75;4.00;;;;;10.71;39.67;98226.03;6229143;28;96433;-60
2023/01/15 01:12:59;;;;;;;;;3.40;3.40;;;;;10.68;39.99;98213.03;6226787;28;97021;-61
2023/01/15 01:16:02;;;;;;;;;6.00;6.00;;;;;10.76;39.85;98229.66;6246850;27;97417;-62
2023/01/15 01:19:08;;;;;;;;;3.00;3.00;;;;;10.76;39.96;98216.19;6210055;28;96695;-62
2023/01/15 01:22:13;;;;;;;;;6.00;5.00;;;;;10.71;39.84;98216.06;6228023;28;96492;-60
2023/01/15 01:25:16;;;;;;;;;6.00;6.00;;;;;10.70;39.30;98210.94;6227306;28;96283;-63
2023/01/15 01:28:20;;;;;;;;;6.00;5.00;;;;;10.82;39.69;98209.84;6221061;28;96261;-61
2023/01/15 01:31:24;;;;;;;;;5.00;4.75;;;;;10.90;39.43;98203.22;6240320;27;96812;-60
2023/01/15 01:34:28;;;;;;;;;6.00;5.00;;;;;10.80;39.06;98195.75;6223970;28;97122;-61
2023/01/15 01:37:33;;;;;;;;;4.75;4.00;;;;;10.72;39.26;98206.94;6208011;28;98683;-61
2023/01/15 01:40:40;;;;;;;;;7.00;7.00;;;;;10.76;39.42;98178.44;6228997;28;96710;-61
2023/01/15 01:43:56;;;;;;;;;3.50;3.25;;;;;10.81;39.35;98175.00;6249777;27;96270;-62
2023/01/15 01:47:01;;;;;;;;;7.00;6.60;;;;;10.79;39.51;98169.88;6203467;28;96654;-61
2023/01/15 01:50:09;;;;;;;;;8.40;7.40;;;;;10.78;39.31;98159.31;6234615;27;96402;-60
2023/01/15 01:53:19;;;;;;;;;6.00;6.00;;;;;10.81;39.51;98150.75;6225825;28;96639;-60
2023/01/15 01:56:24;;;;;;;;;5.60;5.60;;;;;10.81;39.58;98148.88;6242697;28;96470;-61
2023/01/15 01:59:28;;;;;;;;;5.00;5.00;;;;;10.72;39.68;98144.09;6216589;28;97002;-61
2023/01/15 02:02:32;;;;;;;;;5.00;5.00;;;;;10.77;39.58;98138.81;6241465;27;97142;-61
2023/01/15 02:05:39;;;;;;;;;5.75;5.75;;;;;10.71;39.78;98137.91;6242154;28;96372;-61
2023/01/15 02:08:44;;;;;;;;;5.00;5.00;;;;;10.76;39.81;98131.78;6226695;28;96797;-61
2023/01/15 02:11:54;;;;;;;;;6.00;6.00;;;;;10.66;39.98;98126.19;6245592;28;96201;-61
2023/01/15 02:15:08;;;;;;;;;6.00;6.00;;;;;10.66;39.99;98142.38;6244032;28;96247;-61
2023/01/15 02:18:20;;;;;;;;;4.00;4.00;;;;;10.72;39.81;98127.94;6254357;27;96260;-61
2023/01/15 02:21:34;;;;;;;;;6.00;6.00;;;;;10.65;39.76;98119.19;6229982;28;97102;-61
2023/01/15 02:24:50;;;;;;;;;4.00;3.67;;;;;10.71;39.75;98139.78;6248950;28;96985;-60
2023/01/15 02:28:01;;;;;;;;;5.00;5.00;;;;;10.72;39.84;98111.75;6229819;28;98319;-60
2023/01/15 02:31:12;;;;;;;;;5.20;4.60;;;;;10.74;39.62;98123.94;6229632;28;96198;-60
2023/01/15 02:34:22;;;;;;;;;4.60;4.00;;;;;10.75;39.41;98130.97;6257464;27;96384;-61
2023/01/15 02:37:31;;;;;;;;;6.00;6.00;;;;;10.83;39.66;98109.03;6203977;28;98730;-60
2023/01/15 02:40:37;;;;;;;;;4.00;4.00;;;;;10.91;39.30;98105.09;6230212;28;96195;-60
2023/01/15 02:43:44;;;;;;;;;5.00;5.00;;;;;11.04;39.45;98112.09;6233295;28;96768;-61
2023/01/15 02:46:49;;;;;;;;;5.00;5.00;;;;;11.07;39.60;98112.41;6212220;28;96637;-61
2023/01/15 02:49:57;;;;;;;;;5.00;5.00;;;;;11.10;39.06;98117.28;6228631;28;97199;-61
2023/01/15 02:53:06;;;;;;;;;4.80;4.20;;;;;11.12;39.18;98114.38;6228817;28;97066;-61
2023/01/15 02:56:16;;;;;;;;;7.00;7.00;;;;;11.13;38.75;98113.31;6211876;28;98941;-61
2023/01/15 02:59:34;;;;;;;;;6.75;6.75;;;;;11.22;38.85;98103.75;6212370;28;96622;-59
2023/01/15 03:02:44;;;;;;;;;7.00;7.00;;;;;11.17;38.90;98109.88;6213367;28;96329;-60
2023/01/15 03:05:56;;;;;;;;;6.60;6.60;;;;;11.23;38.64;98113.47;6246969;27;96166;-61
2023/01/15 03:09:00;;;;;;;;;5.00;4.00;;;;;11.26;38.44;98107.59;6221112;28;96461;-60
2023/01/15 03:12:12;;;;;;;;;6.00;6.00;;;;;11.36;38.65;98115.03;6227268;28;96768;-61
2023/01/15 03:16:33;;;;;;;;;5.00;5.00;;;;;11.27;38.55;98104.66;6228397;28;96271;-61
2023/01/15 03:18:50;;;;;;;;;6.00;5.50;;;;;11.25;38.77;98097.84;6221248;27;96485;-60
2023/01/15 03:21:59;;;;;;;;;7.00;7.00;;;;;11.24;38.85;98102.44;6229878;27;96819;-61
2023/01/15 03:25:06;;;;;;;;;6.20;6.20;;;;;11.25;39.20;98112.16;6246148;28;96400;-60
2023/01/15 03:28:23;;;;;;;;;7.00;6.20;;;;;11.13;38.94;98100.66;6211792;28;96637;-61
2023/01/15 03:31:30;;;;;;;;;6.20;6.20;;;;;11.08;39.05;98099.72;6244753;28;98475;-61
2023/01/15 03:34:40;;;;;;;;;7.00;5.33;;;;;11.12;39.26;98087.38;6212378;28;96520;-61
2023/01/15 03:37:44;;;;;;;;;6.00;6.00;;;;;10.97;39.39;98082.56;6239145;27;96375;-65
2023/01/15 03:40:55;;;;;;;;;7.40;7.40;;;;;11.22;39.31;98090.25;6210079;28;98691;-61
2023/01/15 03:44:11;;;;;;;;;7.00;7.00;;;;;11.07;39.39;98081.91;6257198;27;96685;-61
2023/01/15 03:47:29;;;;;;;;;6.80;6.80;;;;;11.32;39.32;98084.22;6248067;27;96594;-62
2023/01/15 03:50:43;;;;;;;;;8.00;7.00;;;;;11.35;39.13;98076.44;6213365;28;99089;-61
2023/01/15 03:53:52;;;;;;;;;7.40;6.40;;;;;11.45;38.93;98075.78;6226615;28;96914;-63
2023/01/15 03:57:03;;;;;;;;;6.00;5.20;;;;;11.47;38.72;98079.06;6244300;28;96353;-60
2023/01/15 04:00:12;;;;;;;;;7.60;7.60;;;;;11.44;38.99;98074.94;6245423;28;96981;-61
2023/01/15 04:03:26;;;;;;;;;8.00;7.60;;;;;11.62;38.83;98069.31;6211842;28;98145;-61
2023/01/15 04:06:35;;;;;;;;;6.00;6.00;;;;;11.52;38.71;98039.47;6222610;28;97087;-61
2023/01/15 04:09:40;;;;;;;;;7.40;7.00;;;;;11.69;38.47;98066.41;6246642;27;96218;-63
2023/01/15 04:12:46;;;;;;;;;6.25;6.00;;;;;11.77;38.26;98047.13;6243721;27;96924;-62
2023/01/15 04:15:50;;;;;;;;;7.00;6.00;;;;;11.79;38.46;98031.47;6204336;28;96994;-60
2023/01/15 04:18:55;;;;;;;;;4.20;4.00;;;;;11.96;37.99;98042.25;6215408;28;96292;-62
2023/01/15 04:22:00;;;;;;;;;5.80;5.80;;;;;11.98;38.03;98037.38;6224758;28;96579;-60
2023/01/15 04:25:05;;;;;;;;;6.00;6.00;;;;;12.01;37.84;98028.78;6245224;27;96573;-60
2023/01/15 04:28:26;;;;;;;;;8.00;7.40;;;;;11.97;37.76;98019.56;6249578;27;96990;-61
2023/01/15 04:31:32;;;;;;;;;5.40;5.40;;;;;11.91;37.76;98021.38;6218725;28;98347;-63
2023/01/15 04:34:36;;;;;;;;;6.00;5.00;;;;;11.90;38.20;98013.53;6260433;27;96955;-61
2023/01/15 04:37:40;;;;;;;;;3.00;3.00;;;;;11.83;38.39;98007.47;6226815;28;99053;-60
2023/01/15 04:44:07;;;;;;;;;7.60;7.60;;;;;11.62;38.62;97995.59;6253565;27;96659;-62
2023/01/15 04:47:11;;;;;;;;;4.75;4.75;;;;;11.47;38.74;98007.00;6248937;27;96607;-60
2023/01/15 04:50:16;;;;;;;;;5.00;5.00;;;;;11.34;39.46;97983.03;6225222;28;96798;-62
2023/01/15 04:53:20;;;;;;;;;4.40;4.00;;;;;11.21;39.42;97978.00;6242747;28;97285;-61
2023/01/15 04:56:23;;;;;;;;;4.80;4.80;;;;;11.18;39.73;97971.25;6228700;27;98075;-60
2023/01/15 04:59:27;;;;;;;;;6.00;5.00;;;;;11.18;39.83;97973.13;6251883;27;96330;-61
2023/01/15 05:02:31;;;;;;;;;7.00;6.00;;;;;11.23;40.08;97971.31;6244815;27;96356;-61
2023/01/15 05:05:36;;;;;;;;;5.00;4.00;;;;;11.28;39.65;97965.16;6250264;27;96930;-61
2023/01/15 05:08:39;;;;;;;;;5.60;5.60;;;;;11.31;39.62;97953.88;6242969;27;96409;-62
2023/01/15 05:11:42;;;;;;;;;6.50;6.50;;;;;11.19;40.08;97953.16;6234647;27;96968;-61
2023/01/15 05:14:46;;;;;;;;;4.00;4.00;;;;;11.38;39.83;97945.59;6223957;28;96807;-61
2023/01/15 05:17:49;;;;;;;;;5.25;5.25;;;;;11.13;39.71;97941.50;6243349;28;96213;-62
2023/01/15 05:20:54;;;;;;;;;6.40;6.40;;;;;11.32;39.72;97938.50;6224371;28;96356;-61
2023/01/15 05:24:00;;;;;;;;;6.00;6.00;;;;;11.34;39.84;97955.28;6222518;28;96674;-60
2023/01/15 05:27:05;;;;;;;;;7.00;7.00;;;;;11.30;39.96;97944.94;6223654;28;96443;-60
2023/01/15 05:30:09;;;;;;;;;7.00;7.00;;;;;11.23;39.81;97946.22;6239011;27;97442;-60
2023/01/15 05:33:13;;;;;;;;;5.00;4.00;;;;;11.24;39.98;97923.53;6240483;28;97024;-60
2023/01/15 05:36:20;;;;;;;;;5.00;4.60;;;;;11.33;40.04;97915.84;6239103;27;96606;-61
2023/01/15 05:39:23;;;;;;;;;8.00;7.40;;;;;11.40;39.70;97933.47;6240803;27;96382;-63
2023/01/15 05:42:27;;;;;;;;;6.00;6.00;;;;;11.34;39.63;97933.69;6240358;27;96487;-62
2023/01/15 05:45:30;;;;;;;;;6.00;5.00;;;;;11.21;40.00;97903.28;6220268;27;96699;-61
2023/01/15 05:48:34;;;;;;;;;5.00;4.80;;;;;11.43;39.77;97918.69;6222710;27;98544;-62
2023/01/15 05:51:40;;;;;;;;;4.00;4.00;;;;;11.49;39.62;97914.97;6216629;28;96296;-60
2023/01/15 05:54:43;;;;;;;;;5.00;5.00;;;;;11.34;39.80;97894.00;6233216;27;97815;-63
2023/01/15 05:57:48;;;;;;;;;6.40;5.40;;;;;11.38;39.70;97891.63;6209975;28;96698;-61
2023/01/15 06:00:51;;;;;;;;;7.00;7.00;;;;;11.43;39.28;97899.78;6241561;27;96638;-62
2023/01/15 06:03:54;;;;;;;;;5.00;5.00;;;;;11.54;39.18;97905.06;6225647;27;96536;-61
2023/01/15 06:06:59;;;;;;;;;5.40;5.00;;;;;11.60;38.67;97885.16;6233981;28;96590;-61
2023/01/15 06:10:03;;;;;;;;;5.00;5.00;;;;;11.63;38.64;97883.84;6227969;28;96658;-64
2023/01/15 06:13:06;;;;;;;;;4.75;3.75;;;;;11.68;38.71;97884.69;6227957;28;96430;-60
2023/01/15 06:16:10;;;;;;;;;7.25;6.25;;;;;11.71;38.89;97883.38;6213093;27;99320;-60
2023/01/15 06:19:14;;;;;;;;;7.00;6.00;;;;;11.74;38.03;97885.59;6246377;28;96249;-60
2023/01/15 06:22:19;;;;;;;;;5.80;5.00;;;;;11.73;38.16;97875.88;6247656;27;97067;-60
2023/01/15 06:25:23;;;;;;;;;6.40;6.40;;;;;11.76;38.29;97899.69;6201067;28;96784;-62
2023/01/15 06:28:26;;;;;;;;;4.00;3.00;;;;;11.81;37.97;97902.44;6244984;28;96441;-60
2023/01/15 06:31:31;;;;;;;;;4.00;4.00;;;;;12.02;38.09;97890.75;6235579;27;96265;-62
2023/01/15 06:34:35;;;;;;;;;5.67;5.67;;;;;11.97;37.80;97890.69;6245981;28;96318;-62
2023/01/15 06:37:40;;;;;;;;;6.00;6.00;;;;;11.80;37.94;97881.06;6243582;27;96889;-60
2023/01/15 06:40:43;;;;;;;;;7.00;7.00;;;;;11.88;37.84;97900.34;6246453;27;96357;-61
2023/01/15 06:47:23;;;;;;;;;5.00;4.00;;;;;11.87;38.11;97887.09;6199605;27;96545;-62
2023/01/15 06:50:27;;;;;;;;;5.20;5.00;;;;;11.81;37.74;97890.81;6229588;28;96517;-62
2023/01/15 06:53:31;;;;;;;;;4.50;4.25;;;;;11.83;38.17;97899.47;6240949;28;96246;-64
2023/01/15 06:56:35;;;;;;;;;5.00;5.00;;;;;11.83;38.07;97883.25;6222501;28;96625;-62
2023/01/15 06:59:38;;;;;;;;;5.00;4.20;;;;;12.01;38.02;97872.94;6226183;28;99007;-60
2023/01/15 07:02:41;;;;;;;;;5.00;5.00;;;;;12.07;37.86;97879.22;6243454;28;97210;-61
2023/01/15 07:05:44;;;;;;;;;5.00;5.00;;;;;12.02;38.10;97881.88;6242241;27;96895;-62
2023/01/15 07:08:49;;;;;;;;;6.00;6.00;;;;;12.04;37.78;97888.63;6243359;28;96338;-62
2023/01/15 07:11:53;;;;;;;;;6.00;6.00;;;;;11.98;37.91;97870.72;6243819;28;96307;-61
2023/01/15 07:14:56;;;;;;;;;7.00;5.50;;;;;12.09;37.71;97885.16;6244629;28;96347;-63
2023/01/15 07:17:59;;;;;;;;;7.00;7.00;;;;;12.23;37.61;97866.63;6226656;28;98344;-64
2023/01/15 07:21:02;;;;;;;;;5.00;5.00;;;;;12.18;37.34;97870.09;6243554;27;96668;-64
2023/01/15 07:24:09;;;;;;;;;5.00;4.40;;;;;12.27;37.72;97865.03;6207227;28;96647;-63
2023/01/15 07:27:12;;;;;;;;;5.00;5.00;;;;;12.33;37.57;97872.13;6247572;27;96642;-61
2023/01/15 07:30:16;;;;;;;;;5.00;5.00;;;;;12.33;37.83;97883.75;6237355;27;97342;-61
2023/01/15 07:33:19;;;;;;;;;5.00;4.50;;;;;12.39;37.46;97877.34;6243783;28;96746;-63
2023/01/15 07:36:22;;;;;;;;;7.00;6.40;;;;;12.47;37.23;97866.03;6242255;27;96404;-61
2023/01/15 07:39:30;;;;;;;;;4.25;3.50;;;;;12.51;37.31;97877.94;6206690;27;96753;-61
2023/01/15 07:52:34;;;;;;;;;6.60;6.00;;;;;12.44;36.80;97874.66;6237218;27;96526;-62
2023/01/15 07:55:39;;;;;;;;;5.00;5.00;;;;;12.51;36.85;97864.44;6240132;27;96389;-62
2023/01/15 07:58:47;;;;;;;;;4.60;4.40;;;;;12.61;37.00;97887.25;6240767;28;96478;-62
2023/01/15 08:01:51;;;;;;;;;4.60;4.00;;;;;12.48;36.91;97864.97;6242151;27;97782;-62
2023/01/15 08:04:55;;;;;;;;;6.80;5.80;;;;;12.63;36.77;97877.78;6221995;28;96753;-62
2023/01/15 08:07:58;;;;;;;;;6.00;6.00;;;;;12.76;36.71;97877.31;6238790;28;96759;-61
2023/01/15 08:17:47;;;;;;;;;3.00;3.00;;;;;13.17;35.31;97872.19;6218608;28;96983;-61
2023/01/15 08:20:50;;;;;;;;;4.00;4.00;;;;;13.29;35.23;97876.31;6239744;27;96941;-60
2023/01/15 08:23:54;;;;;;;;;5.00;4.60;;;;;13.30;34.86;97859.00;6234414;28;96976;-61
2023/01/15 08:26:58;;;;;;;;;4.00;4.00;;;;;13.44;34.54;97867.44;6246355;27;96955;-61
2023/01/15 08:30:02;;;;;;;;;5.00;5.00;;;;;13.71;34.02;97859.97;6243941;28;96835;-61
2023/01/15 08:33:05;;;;;;;;;6.00;6.00;;;;;13.81;33.94;97865.41;6223784;27;96535;-62
2023/01/15 08:36:09;;;;;;;;;6.00;6.00;;;;;13.75;33.90;97861.06;6236242;27;96862;-62
2023/01/15 08:39:12;;;;;;;;;4.00;4.00;;;;;13.81;33.45;97864.59;6239007;28;97458;-60
2023/01/15 08:42:17;;;;;;;;;7.00;6.00;;;;;13.76;33.65;97865.41;6231266;27;97413;-60
2023/01/15 08:45:21;;;;;;;;;5.00;5.00;;;;;13.75;33.49;97862.97;6241749;28;96745;-61
2023/01/15 08:48:24;;;;;;;;;4.25;4.25;;;;;13.67;33.59;97848.06;6256759;27;96073;-62
2023/01/15 08:51:27;;;;;;;;;4.00;4.00;;;;;13.69;33.82;97853.19;6212311;27;98446;-60
2023/01/15 08:54:31;;;;;;;;;5.00;4.00;;;;;13.69;33.31;97843.16;6237729;28;96470;-61
2023/01/15 08:57:37;;;;;;;;;5.00;5.00;;;;;13.80;33.70;97844.81;6238673;27;97170;-61
2023/01/15 09:00:40;;;;;;;;;6.00;5.00;;;;;13.72;33.36;97847.25;6225308;27;96319;-62
2023/01/15 09:03:45;;;;;;;;;4.40;3.40;;;;;13.65;33.50;97839.38;6196827;28;97064;-63
2023/01/15 09:06:48;;;;;;;;;4.40;4.40;;;;;13.47;33.59;97839.84;6235413;27;96618;-60
2023/01/15 09:09:53;;;;;;;;;5.33;5.33;;;;;13.28;33.60;97822.47;6224623;27;97295;-64
2023/01/15 09:13:00;;;;;;;;;5.75;5.75;;;;;13.15;33.30;97847.28;6223040;27;96637;-62
2023/01/15 09:16:05;;;;;;;;;5.80;5.80;;;;;13.27;33.63;97859.53;6241152;27;96530;-63
2023/01/15 09:19:10;;;;;;;;;5.50;5.50;;;;;13.15;33.58;97834.56;6219561;27;98740;-61
2023/01/15 09:22:13;;;;;;;;;6.40;6.40;;;;;13.20;33.54;97840.00;6239270;28;96207;-62
2023/01/15 09:25:18;;;;;;;;;7.60;7.00;;;;;13.13;33.36;97838.63;6233483;27;97652;-65
2023/01/15 09:28:23;;;;;;;;;7.50;6.00;;;;;13.38;33.20;97827.91;6236492;27;96399;-61
2023/01/15 09:31:27;;;;;;;;;7.00;6.40;;;;;13.16;33.09;97832.69;6209815;28;98164;-61
2023/01/15 09:34:31;;;;;;;;;5.60;5.60;;;;;13.08;33.40;97817.75;6221786;28;97607;-61
2023/01/15 09:37:34;;;;;;;;;3.80;3.80;;;;;13.13;33.41;97808.88;6234240;27;96298;-65
2023/01/15 09:40:47;;;;;;;;;5.20;5.20;;;;;13.10;32.96;97812.88;6207685;27;97758;-61
2023/01/15 09:43:58;;;;;;;;;4.80;4.20;;;;;13.03;33.24;97809.59;6242846;28;97757;-61
2023/01/15 09:47:09;;;;;;;;;4.00;4.00;;;;;13.23;33.06;97806.19;6241935;27;98230;-60
2023/01/15 09:50:29;;;;;;;;;4.00;4.00;;;;;13.08;32.74;97806.91;6224419;28;96800;-60
2023/01/15 09:53:56;;;;;;;;;6.00;5.00;;;;;13.16;32.44;97811.03;6239382;27;96393;-59
2023/01/15 09:57:01;;;;;;;;;3.50;3.50;;;;;13.28;32.33;97795.41;6243717;28;96496;-64
2023/01/15 10:00:07;;;;;;;;;3.00;3.00;;;;;13.24;32.42;97784.28;6245746;28;96505;-64
2023/01/15 10:03:28;;;;;;;;;4.00;4.00;;;;;13.33;31.83;97796.22;6246064;28;96859;-61
2023/01/15 10:06:39;;;;;;;;;3.00;3.00;;;;;13.56;31.96;97804.94;6225651;27;96428;-62
2023/01/15 10:09:42;;;;;;;;;4.00;4.00;;;;;13.60;31.60;97796.03;6227962;28;96481;-61
2023/01/15 10:12:49;;;;;;;;;5.60;5.00;;;;;13.43;31.57;97790.03;6238507;27;96514;-61
2023/01/15 10:15:54;;;;;;;;;5.00;4.00;;;;;13.47;31.64;97768.66;6241292;27;96550;-63
2023/01/15 10:19:02;;;;;;;;;5.40;5.00;;;;;13.47;31.50;97769.47;6240536;28;96841;-60
2023/01/15 10:22:13;;;;;;;;;3.00;3.00;;;;;13.64;31.85;97793.59;6205334;28;98390;-63
2023/01/15 10:25:24;;;;;;;;;4.00;3.60;;;;;13.71;31.37;97792.25;6240236;27;96400;-61
2023/01/15 10:28:30;;;;;;;;;5.00;5.00;;;;;13.89;31.37;97789.03;6228826;28;96267;-60
2023/01/15 10:31:49;;;;;;;;;4.67;3.67;;;;;14.08;31.36;97791.19;6226205;28;96720;-62
2023/01/15 10:35:29;;;;;;;;;5.00;4.50;;;;;14.17;31.23;97800.44;6243134;27;96713;-64
2023/01/15 10:38:40;;;;;;;;;4.60;4.40;;;;;14.08;30.81;97788.50;6246531;27;96685;-62
2023/01/15 10:41:59;;;;;;;;;4.00;4.00;;;;;14.10;31.16;97778.22;6241307;27;96894;-63
2023/01/15 10:45:11;;;;;;;;;5.00;5.00;;;;;14.29;31.00;97793.66;6227416;28;98397;-61
2023/01/15 10:48:25;;;;;;;;;5.00;5.00;;;;;14.44;31.32;97795.56;6240247;27;96234;-63
2023/01/15 10:51:34;;;;;;;;;6.40;6.40;;;;;14.59;31.48;97792.03;6240420;27;96468;-63
2023/01/15 10:54:42;;;;;;;;;5.00;4.60;;;;;14.80;31.76;97788.19;6217485;27;98952;-60
2023/01/15 10:57:51;;;;;;;;;4.40;4.00;;;;;14.85;31.14;97790.06;6229214;28;96936;-61
2023/01/15 11:01:18;;;;;;;;;5.00;5.00;;;;;14.89;30.81;97783.81;6237602;27;96341;-62
2023/01/15 11:04:25;;;;;;;;;4.50;4.50;;;;;14.98;30.59;97775.91;6228515;27;97593;-63
2023/01/15 11:07:36;;;;;;;;;3.00;3.00;;;;;14.99;30.40;97772.94;6241658;27;96572;-60
2023/01/15 11:10:42;;;;;;;;;6.00;5.25;;;;;15.00;30.28;97754.75;6211507;28;98589;-59
2023/01/15 11:20:44;;;;;;;;;5.80;5.80;;;;;14.62;30.29;97742.63;6202303;28;97249;-59
2023/01/15 11:23:48;;;;;;;;;5.00;5.00;;;;;14.48;30.54;97742.41;6224980;27;97063;-60
2023/01/15 11:26:53;;;;;;;;;3.75;3.75;;;;;14.35;30.91;97740.25;6243742;27;97028;-61
2023/01/15 11:29:59;;;;;;;;;5.60;5.20;;;;;14.33;30.91;97743.22;6244325;28;97294;-61
2023/01/15 11:33:03;;;;;;;;;5.20;5.20;;;;;14.38;31.16;97745.13;6242193;27;96229;-60
2023/01/15 11:36:21;;;;;;;;;5.50;5.00;;;;;14.39;31.09;97740.53;6242999;28;96524;-63
2023/01/15 11:39:27;;;;;;;;;5.00;5.00;;;;;14.31;31.50;97739.16;6243016;27;96828;-61
2023/01/15 11:52:42;;;;;;;;;4.60;4.60;;;;;13.97;32.71;97738.09;6219247;28;99023;-61
2023/01/15 11:55:58;;;;;;;;;4.00;4.00;;;;;13.86;32.58;97729.97;6244315;27;96697;-62
2023/01/15 11:59:09;;;;;;;;;5.40;5.00;;;;;13.80;33.43;97722.09;6221667;28;96629;-62
2023/01/15 12:02:24;;;;;;;;;5.00;5.00;;;;;13.79;34.02;97709.66;6258274;27;96798;-70
2023/01/15 12:05:31;;;;;;;;;7.00;6.50;;;;;13.62;34.86;97728.88;6239716;28;96848;-70
2023/01/15 12:08:45;;;;;;;;;5.00;5.00;;;;;13.40;35.79;97715.56;6208288;27;96903;-70
2023/01/15 12:12:06;;;;;;;;;6.00;4.00;;;;;13.23;37.03;97698.78;6233436;27;96371;-70
2023/01/15 12:15:33;;;;;;;;;3.40;3.00;;;;;13.11;38.55;97710.88;6221220;28;97156;-67
2023/01/15 12:19:00;;;;;;;;;5.00;5.00;;;;;12.97;39.49;97700.56;6230967;27;96232;-63
2023/01/15 12:22:26;;;;;;;;;6.00;5.40;;;;;12.82;40.06;97696.97;6240553;27;96504;-65
2023/01/15 12:25:41;;;;;;;;;5.50;5.00;;;;;12.75;41.07;97689.13;6224371;27;97068;-65
2023/01/15 12:28:54;;;;;;;;;7.00;7.00;;;;;12.55;41.42;97687.16;6227835;28;96510;-65
2023/01/15 12:32:03;;;;;;;;;6.60;6.00;;;;;12.21;42.93;97685.06;6213506;28;98579;-64
2023/01/15 12:35:15;;;;;;;;;9.00;8.00;;;;;12.12;43.30;97673.91;6213160;28;97249;-64
2023/01/15 12:38:24;;;;;;;;;7.80;6.80;;;;;12.10;44.34;97686.88;6217131;28;96318;-65
2023/01/15 12:45:03;;;;;;;;;7.00;6.00;;;;;11.93;45.40;97670.81;6229032;28;96773;-64
2023/01/15 12:48:16;;;;;;;;;3.20;3.20;;;;;11.75;45.97;97665.84;6234359;28;97079;-65
2023/01/15 12:51:27;;;;;;;;;7.00;7.00;;;;;11.84;45.61;97666.16;6237835;28;97520;-64
2023/01/15 12:54:39;;;;;;;;;7.00;6.00;;;;;11.73;46.39;97659.88;6237291;28;96464;-65
2023/01/15 12:57:46;;;;;;;;;5.00;5.00;;;;;11.87;46.38;97650.28;6212008;27;96155;-64
2023/01/15 13:00:53;;;;;;;;;6.00;5.00;;;;;11.72;46.60;97625.84;6218460;27;96706;-65
2023/01/15 13:04:11;;;;;;;;;6.80;5.80;;;;;12.01;45.70;97643.34;6215421;28;97207;-64
2023/01/15 13:07:24;;;;;;;;;4.00;4.00;;;;;12.00;46.37;97640.91;6224235;28;96474;-67
2023/01/15 13:10:30;;;;;;;;;3.80;3.80;;;;;11.99;46.64;97636.56;6217351;28;96366;-63
2023/01/15 13:13:38;;;;;;;;;6.60;6.00;;;;;11.86;47.03;97626.22;6218729;28;96308;-64
2023/01/15 13:16:47;;;;;;;;;5.00;5.00;;;;;11.99;46.62;97631.97;6234937;28;96360;-65
2023/01/15 13:20:05;;;;;;;;;6.00;6.00;;;;;12.19;46.39;97628.56;6200652;28;96627;-67
2023/01/15 13:23:17;;;;;;;;;8.00;8.00;;;;;12.03;46.55;97619.56;6232843;28;96147;-66
2023/01/15 13:26:40;;;;;;;;;7.40;7.00;;;;;12.12;46.58;97606.38;6235266;28;97169;-66
2023/01/15 13:30:03;;;;;;;;;6.40;6.00;;;;;12.19;46.10;97608.84;6216119;28;98372;-65
2023/01/15 13:33:19;;;;;;;;;7.00;7.00;;;;;12.31;45.96;97604.06;6236037;27;96284;-64
2023/01/15 13:36:26;;;;;;;;;6.00;5.00;;;;;12.42;45.67;97603.81;6236218;28;96310;-64
2023/01/15 13:39:38;;;;;;;;;7.00;7.00;;;;;12.40;45.23;97613.28;6232545;28;96807;-65
2023/01/15 13:42:46;;;;;;;;;6.00;5.00;;;;;12.46;44.95;97599.50;6198256;28;96642;-66
2023/01/15 13:45:51;;;;;;;;;5.00;5.00;;;;;12.53;44.64;97591.97;6232057;28;96910;-64
2023/01/15 13:48:55;;;;;;;;;5.80;5.80;;;;;12.31;44.30;97595.94;6223995;28;96982;-65
2023/01/15 13:52:03;;;;;;;;;4.00;4.00;;;;;12.46;44.38;97604.91;6210146;28;98431;-64
2023/01/15 13:55:13;;;;;;;;;6.40;6.00;;;;;12.43;43.51;97605.44;6214198;28;96645;-65
2023/01/15 13:58:24;;;;;;;;;4.20;4.20;;;;;12.65;43.10;97591.75;6215908;28;97277;-64
2023/01/15 14:01:33;;;;;;;;;7.00;7.00;;;;;12.51;43.11;97591.41;6220582;28;96372;-64
2023/01/15 14:04:38;;;;;;;;;7.00;7.00;;;;;12.49;43.00;97585.47;6228621;28;97090;-64
2023/01/15 14:07:41;;;;;;;;;5.33;5.33;;;;;12.58;42.60;97594.69;6218404;28;96658;-63
2023/01/15 14:10:47;;;;;;;;;6.20;6.20;;;;;12.64;42.70;97605.53;6222878;28;98204;-65
2023/01/15 14:14:09;;;;;;;;;6.00;6.00;;;;;12.73;42.65;97601.22;6223492;27;96662;-64
2023/01/15 14:17:33;;;;;;;;;8.00;8.00;;;;;12.50;42.56;97602.50;6246501;28;98121;-64
2023/01/15 14:21:10;;;;;;;;;8.00;7.00;;;;;12.66;42.56;97596.03;6223009;28;97200;-63
2023/01/15 14:24:51;;;;;;;;;7.00;6.40;;;;;12.55;42.31;97592.53;6244652;28;96927;-64
2023/01/15 14:28:10;;;;;;;;;8.00;8.00;;;;;12.58;42.64;97583.06;6243142;28;96472;-63
2023/01/15 14:31:30;;;;;;;;;9.00;9.00;;;;;12.53;42.52;97583.84;6228437;27;96504;-63
2023/01/15 14:34:35;;;;;;;;;7.75;6.75;;;;;12.45;42.56;97573.56;6219696;28;97697;-63
2023/01/15 14:37:48;;;;;;;;;7.75;7.00;;;;;12.52;42.91;97573.31;6219566;27;96929;-63
2023/01/15 14:40:59;;;;;;;;;8.60;8.20;;;;;12.41;42.85;97585.19;6237405;27;97003;-65
2023/01/15 14:44:03;;;;;;;;;11.00;10.33;;;;;12.52;43.19;97567.91;6220861;28;98309;-63
2023/01/15 14:47:24;;;;;;;;;11.00;10.00;;;;;12.45;43.42;97567.34;6217580;27;96917;-64
2023/01/15 14:50:33;;;;;;;;;9.00;9.00;;;;;12.10;44.68;97565.31;6215381;28;96681;-63
2023/01/15 14:53:43;;;;;;;;;9.00;9.00;;;;;11.87;45.43;97557.66;6235691;28;96469;-63
2023/01/15 14:56:51;;;;;;;;;9.00;9.00;;;;;11.99;45.58;97579.84;6232972;27;96548;-63
2023/01/15 14:59:59;;;;;;;;;10.00;8.00;;;;;12.05;45.57;97568.81;6212618;28;96996;-64
2023/01/15 15:03:14;;;;;;;;;10.00;9.00;;;;;12.07;45.64;97560.47;6207222;28;98704;-64
2023/01/15 15:06:19;;;;;;;;;8.00;7.20;;;;;12.03;45.46;97581.75;6241488;27;96528;-63
2023/01/15 15:09:34;;;;;;;;;7.00;6.00;;;;;11.99;46.17;97547.44;6218007;28;96951;-63
2023/01/15 15:12:41;;;;;;;;;6.60;5.40;;;;;11.92;46.06;97560.38;6232820;28;96846;-64
2023/01/15 15:15:52;;;;;;;;;9.00;9.00;;;;;12.05;46.23;97559.91;6226207;27;96185;-63
2023/01/15 15:19:00;;;;;;;;;9.00;8.00;;;;;11.93;46.39;97556.56;6228574;28;96041;-63
2023/01/15 15:22:10;;;;;;;;;9.60;8.60;;;;;11.87;46.45;97571.16;6210588;28;96815;-63
2023/01/15 15:25:22;;;;;;;;;7.00;7.00;;;;;11.95;46.43;97560.66;6223907;27;96667;-63
2023/01/15 15:28:26;;;;;;;;;9.00;9.00;;;;;11.98;46.25;97562.81;6242541;27;96765;-65
2023/01/15 15:31:34;;;;;;;;;10.50;9.75;;;;;12.00;46.21;97560.69;6216415;28;96550;-63
2023/01/15 15:34:45;;;;;;;;;10.00;9.00;;;;;11.98;46.36;97556.59;6251834;27;96670;-63
2023/01/15 15:37:50;;;;;;;;;10.50;9.00;;;;;12.04;46.16;97552.88;6218637;27;96443;-62